Midway City, CA (92655)

10:27 PM PST on December 09, 2016 (GMT -0800)
Cascade Lane | | Change Station

Elev 43 ft 33.74 °N, 118.00 °W | Updated 10 seconds ago

Overcast
Overcast
59.4 °F
Feels Like 59.4 °F
N
0.0
Wind Variable Wind from NNW
Gusts 0.0 mph

Today
High -- | Low -- °F
--% Chance of Precip.
Yesterday
High -- | Low -- °F
Precip. -- in
Pressure 30.20 in
Visibility 5.0 miles
Clouds Overcast 500 ft
Dew Point 58 °F
Humidity 96%
Rainfall 0.00 in
Snow Depth Not available.
6:45 AM 4:43 PM
Waxing Gibbous, 81% visible
METAR KSLI 100558Z 11003KT 5SM BR OVC005 13/13 A3019 RMK AO2A SLP226 T01330133 10166 20126 53010
Pressure 30.20 in
Visibility 5.0 miles
Clouds Overcast 500 ft
Dew Point 58 °F
Humidity 96%
Rainfall 0.00 in
Snow Depth Not available.
6:45 AM 4:43 PM
Waxing Gibbous, 81% visible
METAR KSLI 100558Z 11003KT 5SM BR OVC005 13/13 A3019 RMK AO2A SLP226 T01330133 10166 20126 53010

10-Day Weather Forecast

Almanac

Astronomy

Dec. 09, 2016 Rise Set
Actual Time
Civil Twilight
Nautical Twilight
Astronomical Twilight
Moon
Length of Visible Light
Length of Day
Tomorrow will be .
, % of the Moon is Illuminated

Today's Extremes

State Highs State Lows

Community

WunderPhotos

Upload Photos

1,956,527 photos uploaded!

WunderBlog® & News

Nearby

Air Quality

  Air Quality AQ Index Pollutant
Not available.

Snow Depth

Station Depth Elevation

Earthquake Activity

City Distance Mag. Time & Date
Minimum magnitude displayed is 2.5.

Coastal Water Temperatures

Place Temperature

Stations

Nearby Weather Stations

Station Location Temp. Windchill Dew Point Humidity Wind Precip. Elev Updated Type
                   

Watches & Warnings

There are currently no watches in effect.